sensor_id;sensor_type;location;lat;lon;timestamp;temperature;humidity
7518;DHT22;3800;48.922;9.444;2022-09-02T00:01:42;15.20;99.90
7518;DHT22;3800;48.922;9.444;2022-09-02T00:04:11;15.20;99.90
7518;DHT22;3800;48.922;9.444;2022-09-02T00:06:39;15.10;99.90
7518;DHT22;3800;48.922;9.444;2022-09-02T00:09:07;15.10;99.90
7518;DHT22;3800;48.922;9.444;2022-09-02T00:11:35;15.00;99.90
7518;DHT22;3800;48.922;9.444;2022-09-02T00:14:05;15.00;99.90
7518;DHT22;3800;48.922;9.444;2022-09-02T00:16:32;15.00;99.90
7518;DHT22;3800;48.922;9.444;2022-09-02T00:19:00;15.00;99.90
7518;DHT22;3800;48.922;9.444;2022-09-02T00:21:29;15.00;99.90
7518;DHT22;3800;48.922;9.444;2022-09-02T00:23:56;15.00;99.90
7518;DHT22;3800;48.922;9.444;2022-09-02T00:26:25;14.90;99.90
7518;DHT22;3800;48.922;9.444;2022-09-02T00:28:53;14.90;99.90
7518;DHT22;3800;48.922;9.444;2022-09-02T00:31:22;14.90;99.90
7518;DHT22;3800;48.922;9.444;2022-09-02T00:33:51;14.80;99.90
7518;DHT22;3800;48.922;9.444;2022-09-02T00:36:19;14.80;99.90
7518;DHT22;3800;48.922;9.444;2022-09-02T00:38:47;14.70;99.90
7518;DHT22;3800;48.922;9.444;2022-09-02T00:41:17;14.60;99.90
7518;DHT22;3800;48.922;9.444;2022-09-02T00:43:55;14.60;99.90
7518;DHT22;3800;48.922;9.444;2022-09-02T00:46:25;14.50;99.90
7518;DHT22;3800;48.922;9.444;2022-09-02T00:48:55;14.50;99.90
7518;DHT22;3800;48.922;9.444;2022-09-02T00:51:50;14.40;99.90
7518;DHT22;3800;48.922;9.444;2022-09-02T00:54:18;14.40;99.90
7518;DHT22;3800;48.922;9.444;2022-09-02T00:56:45;14.30;99.90
7518;DHT22;3800;48.922;9.444;2022-09-02T00:59:18;14.30;99.90
7518;DHT22;3800;48.922;9.444;2022-09-02T01:01:45;14.20;99.90
7518;DHT22;3800;48.922;9.444;2022-09-02T01:04:14;14.20;99.90
7518;DHT22;3800;48.922;9.444;2022-09-02T01:06:42;14.10;99.90
7518;DHT22;3800;48.922;9.444;2022-09-02T01:09:12;14.00;99.90
7518;DHT22;3800;48.922;9.444;2022-09-02T01:11:43;13.90;99.90
7518;DHT22;3800;48.922;9.444;2022-09-02T01:14:09;13.90;99.90
7518;DHT22;3800;48.922;9.444;2022-09-02T01:16:41;13.80;99.90
7518;DHT22;3800;48.922;9.444;2022-09-02T01:19:09;13.80;99.90
7518;DHT22;3800;48.922;9.444;2022-09-02T01:21:35;13.80;99.90
7518;DHT22;3800;48.922;9.444;2022-09-02T01:24:05;14.00;99.90
7518;DHT22;3800;48.922;9.444;2022-09-02T01:26:33;14.00;99.90
7518;DHT22;3800;48.922;9.444;2022-09-02T01:29:01;14.10;99.90
7518;DHT22;3800;48.922;9.444;2022-09-02T01:31:29;14.10;99.90
7518;DHT22;3800;48.922;9.444;2022-09-02T01:33:58;14.20;99.90
7518;DHT22;3800;48.922;9.444;2022-09-02T01:36:27;14.40;99.90
7518;DHT22;3800;48.922;9.444;2022-09-02T01:38:55;14.40;99.90
7518;DHT22;3800;48.922;9.444;2022-09-02T01:41:23;14.50;99.90
7518;DHT22;3800;48.922;9.444;2022-09-02T01:43:52;14.60;99.90
7518;DHT22;3800;48.922;9.444;2022-09-02T01:46:23;14.60;99.90
7518;DHT22;3800;48.922;9.444;2022-09-02T01:48:52;14.80;99.90
7518;DHT22;3800;48.922;9.444;2022-09-02T01:51:21;14.70;99.90
7518;DHT22;3800;48.922;9.444;2022-09-02T01:53:49;14.80;99.90
7518;DHT22;3800;48.922;9.444;2022-09-02T01:56:17;14.90;99.90
7518;DHT22;3800;48.922;9.444;2022-09-02T01:58:45;14.90;99.90
7518;DHT22;3800;48.922;9.444;2022-09-02T02:01:14;14.90;99.90
7518;DHT22;3800;48.922;9.444;2022-09-02T02:03:43;14.90;99.90
7518;DHT22;3800;48.922;9.444;2022-09-02T02:06:13;15.00;99.90
7518;DHT22;3800;48.922;9.444;2022-09-02T02:08:41;14.90;99.90
7518;DHT22;3800;48.922;9.444;2022-09-02T02:11:10;15.00;99.90
7518;DHT22;3800;48.922;9.444;2022-09-02T02:13:38;15.00;99.90
7518;DHT22;3800;48.922;9.444;2022-09-02T02:16:07;14.90;99.90
7518;DHT22;3800;48.922;9.444;2022-09-02T02:18:35;14.90;99.90
7518;DHT22;3800;48.922;9.444;2022-09-02T02:21:04;14.90;99.90
7518;DHT22;3800;48.922;9.444;2022-09-02T02:23:33;14.90;99.90
7518;DHT22;3800;48.922;9.444;2022-09-02T02:26:02;14.80;99.90
7518;DHT22;3800;48.922;9.444;2022-09-02T02:28:30;14.80;99.90
7518;DHT22;3800;48.922;9.444;2022-09-02T02:30:59;14.80;99.90
7518;DHT22;3800;48.922;9.444;2022-09-02T02:33:28;14.80;99.90
7518;DHT22;3800;48.922;9.444;2022-09-02T02:35:56;14.80;99.90
7518;DHT22;3800;48.922;9.444;2022-09-02T02:38:24;14.80;99.90
7518;DHT22;3800;48.922;9.444;2022-09-02T02:40:54;14.70;99.90
7518;DHT22;3800;48.922;9.444;2022-09-02T02:43:22;14.60;99.90
7518;DHT22;3800;48.922;9.444;2022-09-02T02:45:49;14.60;99.90
7518;DHT22;3800;48.922;9.444;2022-09-02T02:48:19;14.60;99.90
7518;DHT22;3800;48.922;9.444;2022-09-02T02:50:47;14.40;99.90
7518;DHT22;3800;48.922;9.444;2022-09-02T02:53:16;14.40;99.90
7518;DHT22;3800;48.922;9.444;2022-09-02T02:55:44;14.40;99.90
7518;DHT22;3800;48.922;9.444;2022-09-02T02:58:12;14.20;99.90
7518;DHT22;3800;48.922;9.444;2022-09-02T03:00:41;14.20;99.90
7518;DHT22;3800;48.922;9.444;2022-09-02T03:03:09;14.10;99.90
7518;DHT22;3800;48.922;9.444;2022-09-02T03:05:37;14.10;99.90
7518;DHT22;3800;48.922;9.444;2022-09-02T03:08:07;14.00;99.90
7518;DHT22;3800;48.922;9.444;2022-09-02T03:10:35;13.90;99.90
7518;DHT22;3800;48.922;9.444;2022-09-02T03:13:03;13.90;99.90
7518;DHT22;3800;48.922;9.444;2022-09-02T03:15:31;13.90;99.90
7518;DHT22;3800;48.922;9.444;2022-09-02T03:17:59;13.90;99.90
7518;DHT22;3800;48.922;9.444;2022-09-02T03:20:28;13.80;99.90
7518;DHT22;3800;48.922;9.444;2022-09-02T03:22:57;13.80;99.90
7518;DHT22;3800;48.922;9.444;2022-09-02T03:25:27;13.90;99.90
7518;DHT22;3800;48.922;9.444;2022-09-02T03:27:54;13.80;99.90
7518;DHT22;3800;48.922;9.444;2022-09-02T03:30:24;13.80;99.90
7518;DHT22;3800;48.922;9.444;2022-09-02T03:32:52;13.80;99.90
7518;DHT22;3800;48.922;9.444;2022-09-02T03:35:20;13.80;99.90
7518;DHT22;3800;48.922;9.444;2022-09-02T03:37:49;13.70;99.90
7518;DHT22;3800;48.922;9.444;2022-09-02T03:40:19;13.70;99.90
7518;DHT22;3800;48.922;9.444;2022-09-02T03:42:48;13.70;99.90
7518;DHT22;3800;48.922;9.444;2022-09-02T03:45:16;13.70;99.90
7518;DHT22;3800;48.922;9.444;2022-09-02T03:47:45;13.70;99.90
7518;DHT22;3800;48.922;9.444;2022-09-02T03:50:17;13.70;99.90
7518;DHT22;3800;48.922;9.444;2022-09-02T03:52:45;13.70;99.90
7518;DHT22;3800;48.922;9.444;2022-09-02T03:55:14;13.70;99.90
7518;DHT22;3800;48.922;9.444;2022-09-02T03:57:42;13.70;99.90
7518;DHT22;3800;48.922;9.444;2022-09-02T04:00:13;13.60;99.90
7518;DHT22;3800;48.922;9.444;2022-09-02T04:02:41;13.60;99.90
7518;DHT22;3800;48.922;9.444;2022-09-02T04:05:10;13.50;99.90
7518;DHT22;3800;48.922;9.444;2022-09-02T04:07:38;13.60;99.90
7518;DHT22;3800;48.922;9.444;2022-09-02T04:10:07;13.50;99.90
7518;DHT22;3800;48.922;9.444;2022-09-02T04:12:35;13.50;99.90
7518;DHT22;3800;48.922;9.444;2022-09-02T04:15:05;13.50;99.90
7518;DHT22;3800;48.922;9.444;2022-09-02T04:17:35;13.50;99.90
7518;DHT22;3800;48.922;9.444;2022-09-02T04:20:03;13.50;99.90
7518;DHT22;3800;48.922;9.444;2022-09-02T04:22:31;13.50;99.90
7518;DHT22;3800;48.922;9.444;2022-09-02T04:25:00;13.50;99.90
7518;DHT22;3800;48.922;9.444;2022-09-02T04:27:28;13.50;99.90
7518;DHT22;3800;48.922;9.444;2022-09-02T04:29:58;13.40;99.90
7518;DHT22;3800;48.922;9.444;2022-09-02T04:32:27;13.40;99.90
7518;DHT22;3800;48.922;9.444;2022-09-02T04:34:55;13.40;99.90
7518;DHT22;3800;48.922;9.444;2022-09-02T04:37:23;13.40;99.90
7518;DHT22;3800;48.922;9.444;2022-09-02T04:39:52;13.40;99.90
7518;DHT22;3800;48.922;9.444;2022-09-02T04:42:22;13.50;99.90
7518;DHT22;3800;48.922;9.444;2022-09-02T04:44:50;13.50;99.90
7518;DHT22;3800;48.922;9.444;2022-09-02T04:47:19;13.60;99.90
7518;DHT22;3800;48.922;9.444;2022-09-02T04:49:49;13.60;99.90
7518;DHT22;3800;48.922;9.444;2022-09-02T04:52:15;13.60;99.90
7518;DHT22;3800;48.922;9.444;2022-09-02T04:54:45;13.80;99.90
7518;DHT22;3800;48.922;9.444;2022-09-02T04:57:14;13.70;99.90
7518;DHT22;3800;48.922;9.444;2022-09-02T04:59:43;13.90;99.90
7518;DHT22;3800;48.922;9.444;2022-09-02T05:02:11;13.90;99.90
7518;DHT22;3800;48.922;9.444;2022-09-02T05:04:40;13.90;99.90
7518;DHT22;3800;48.922;9.444;2022-09-02T05:07:08;13.90;99.90
7518;DHT22;3800;48.922;9.444;2022-09-02T05:09:37;14.00;99.90
7518;DHT22;3800;48.922;9.444;2022-09-02T05:12:07;14.00;99.90
7518;DHT22;3800;48.922;9.444;2022-09-02T05:14:35;14.00;99.90
7518;DHT22;3800;48.922;9.444;2022-09-02T05:17:03;14.00;99.90
7518;DHT22;3800;48.922;9.444;2022-09-02T05:19:32;14.00;99.90
7518;DHT22;3800;48.922;9.444;2022-09-02T05:22:01;14.00;99.90
7518;DHT22;3800;48.922;9.444;2022-09-02T05:24:29;14.00;99.90
7518;DHT22;3800;48.922;9.444;2022-09-02T05:26:59;14.00;99.90
7518;DHT22;3800;48.922;9.444;2022-09-02T05:29:28;14.00;99.90
7518;DHT22;3800;48.922;9.444;2022-09-02T05:31:56;14.00;99.90
7518;DHT22;3800;48.922;9.444;2022-09-02T05:34:26;14.00;99.90
7518;DHT22;3800;48.922;9.444;2022-09-02T05:36:54;13.90;99.90
7518;DHT22;3800;48.922;9.444;2022-09-02T05:39:23;14.00;99.90
7518;DHT22;3800;48.922;9.444;2022-09-02T05:41:51;14.00;99.90
7518;DHT22;3800;48.922;9.444;2022-09-02T05:44:20;14.00;99.90
7518;DHT22;3800;48.922;9.444;2022-09-02T05:46:48;14.00;99.90
7518;DHT22;3800;48.922;9.444;2022-09-02T05:49:17;14.00;99.90
7518;DHT22;3800;48.922;9.444;2022-09-02T05:51:46;14.10;99.90
7518;DHT22;3800;48.922;9.444;2022-09-02T05:54:15;14.10;99.90
7518;DHT22;3800;48.922;9.444;2022-09-02T05:56:43;14.10;99.90
7518;DHT22;3800;48.922;9.444;2022-09-02T05:59:11;14.20;99.90
7518;DHT22;3800;48.922;9.444;2022-09-02T06:01:40;14.30;99.90
7518;DHT22;3800;48.922;9.444;2022-09-02T06:04:08;14.20;99.90
7518;DHT22;3800;48.922;9.444;2022-09-02T06:06:37;14.30;99.90
7518;DHT22;3800;48.922;9.444;2022-09-02T06:09:05;14.40;99.90
7518;DHT22;3800;48.922;9.444;2022-09-02T06:11:34;14.50;99.90
7518;DHT22;3800;48.922;9.444;2022-09-02T06:14:02;14.50;99.90
7518;DHT22;3800;48.922;9.444;2022-09-02T06:16:30;14.60;99.90
7518;DHT22;3800;48.922;9.444;2022-09-02T06:18:59;14.60;99.90
7518;DHT22;3800;48.922;9.444;2022-09-02T06:21:27;14.70;99.90
7518;DHT22;3800;48.922;9.444;2022-09-02T06:23:55;14.70;99.90
7518;DHT22;3800;48.922;9.444;2022-09-02T06:26:23;14.80;99.90
7518;DHT22;3800;48.922;9.444;2022-09-02T06:28:52;14.80;99.90
7518;DHT22;3800;48.922;9.444;2022-09-02T06:31:20;14.90;99.90
7518;DHT22;3800;48.922;9.444;2022-09-02T06:33:50;14.90;99.90
7518;DHT22;3800;48.922;9.444;2022-09-02T06:36:17;15.00;99.90
7518;DHT22;3800;48.922;9.444;2022-09-02T06:38:46;15.00;99.90
7518;DHT22;3800;48.922;9.444;2022-09-02T06:41:16;15.10;99.90
7518;DHT22;3800;48.922;9.444;2022-09-02T06:43:43;15.10;99.90
7518;DHT22;3800;48.922;9.444;2022-09-02T06:46:18;15.20;99.90
7518;DHT22;3800;48.922;9.444;2022-09-02T06:48:45;15.30;99.90
7518;DHT22;3800;48.922;9.444;2022-09-02T06:51:19;15.40;99.90
7518;DHT22;3800;48.922;9.444;2022-09-02T06:53:48;15.40;99.90
7518;DHT22;3800;48.922;9.444;2022-09-02T06:56:16;15.50;99.90
7518;DHT22;3800;48.922;9.444;2022-09-02T06:58:44;15.50;99.90
7518;DHT22;3800;48.922;9.444;2022-09-02T07:01:17;15.70;99.90
7518;DHT22;3800;48.922;9.444;2022-09-02T07:03:46;15.60;99.90
7518;DHT22;3800;48.922;9.444;2022-09-02T07:06:19;15.80;99.90
7518;DHT22;3800;48.922;9.444;2022-09-02T07:08:47;15.80;99.90
7518;DHT22;3800;48.922;9.444;2022-09-02T07:11:19;15.90;99.90
7518;DHT22;3800;48.922;9.444;2022-09-02T07:13:46;16.00;99.90
7518;DHT22;3800;48.922;9.444;2022-09-02T07:16:15;16.00;99.90
7518;DHT22;3800;48.922;9.444;2022-09-02T07:18:43;16.20;99.90
7518;DHT22;3800;48.922;9.444;2022-09-02T07:21:12;16.30;99.90
7518;DHT22;3800;48.922;9.444;2022-09-02T07:23:40;16.30;99.90
7518;DHT22;3800;48.922;9.444;2022-09-02T07:26:17;16.40;99.90
7518;DHT22;3800;48.922;9.444;2022-09-02T07:28:46;16.50;99.90
7518;DHT22;3800;48.922;9.444;2022-09-02T07:31:14;16.50;99.90
7518;DHT22;3800;48.922;9.444;2022-09-02T07:33:43;16.70;99.90
7518;DHT22;3800;48.922;9.444;2022-09-02T07:36:11;16.70;99.90
7518;DHT22;3800;48.922;9.444;2022-09-02T07:38:39;16.80;99.90
7518;DHT22;3800;48.922;9.444;2022-09-02T07:41:08;17.00;99.90
7518;DHT22;3800;48.922;9.444;2022-09-02T07:43:35;17.10;99.90
7518;DHT22;3800;48.922;9.444;2022-09-02T07:46:04;17.30;99.90
7518;DHT22;3800;48.922;9.444;2022-09-02T07:48:33;17.40;99.90
7518;DHT22;3800;48.922;9.444;2022-09-02T07:51:01;17.70;99.90
7518;DHT22;3800;48.922;9.444;2022-09-02T07:53:29;17.90;99.90
7518;DHT22;3800;48.922;9.444;2022-09-02T07:55:59;18.10;99.90
7518;DHT22;3800;48.922;9.444;2022-09-02T07:58:27;18.20;99.90
7518;DHT22;3800;48.922;9.444;2022-09-02T08:00:55;18.40;99.90
7518;DHT22;3800;48.922;9.444;2022-09-02T08:03:24;18.60;99.90
7518;DHT22;3800;48.922;9.444;2022-09-02T08:05:52;18.80;99.90
7518;DHT22;3800;48.922;9.444;2022-09-02T08:08:21;19.20;99.90
7518;DHT22;3800;48.922;9.444;2022-09-02T08:10:49;19.20;99.90
7518;DHT22;3800;48.922;9.444;2022-09-02T08:13:17;19.40;99.90
7518;DHT22;3800;48.922;9.444;2022-09-02T08:15:46;19.50;99.90
7518;DHT22;3800;48.922;9.444;2022-09-02T08:18:14;19.60;99.90
7518;DHT22;3800;48.922;9.444;2022-09-02T08:20:43;19.90;99.90
7518;DHT22;3800;48.922;9.444;2022-09-02T08:23:12;19.80;99.90
7518;DHT22;3800;48.922;9.444;2022-09-02T08:25:41;20.00;99.90
7518;DHT22;3800;48.922;9.444;2022-09-02T08:28:09;20.10;99.90
7518;DHT22;3800;48.922;9.444;2022-09-02T08:30:37;20.10;99.90
7518;DHT22;3800;48.922;9.444;2022-09-02T08:33:05;20.20;99.90
7518;DHT22;3800;48.922;9.444;2022-09-02T08:35:34;20.30;99.90
7518;DHT22;3800;48.922;9.444;2022-09-02T08:38:02;20.40;99.90
7518;DHT22;3800;48.922;9.444;2022-09-02T08:40:33;20.50;99.90
7518;DHT22;3800;48.922;9.444;2022-09-02T08:43:02;20.50;99.90
7518;DHT22;3800;48.922;9.444;2022-09-02T08:45:32;20.50;99.90
7518;DHT22;3800;48.922;9.444;2022-09-02T08:48:07;20.50;99.40
7518;DHT22;3800;48.922;9.444;2022-09-02T08:50:41;20.50;99.30
7518;DHT22;3800;48.922;9.444;2022-09-02T08:53:14;20.60;99.90
7518;DHT22;3800;48.922;9.444;2022-09-02T08:55:54;20.80;99.90
7518;DHT22;3800;48.922;9.444;2022-09-02T08:58:23;20.90;99.90
7518;DHT22;3800;48.922;9.444;2022-09-02T09:00:57;21.10;99.80
7518;DHT22;3800;48.922;9.444;2022-09-02T09:03:29;21.20;99.00
7518;DHT22;3800;48.922;9.444;2022-09-02T09:05:59;21.20;99.40
7518;DHT22;3800;48.922;9.444;2022-09-02T09:08:34;21.30;98.80
7518;DHT22;3800;48.922;9.444;2022-09-02T09:19:49;21.40;97.50
7518;DHT22;3800;48.922;9.444;2022-09-02T09:22:02;21.50;97.60
7518;DHT22;3800;48.922;9.444;2022-09-02T09:24:39;21.60;97.60
7518;DHT22;3800;48.922;9.444;2022-09-02T09:27:10;21.60;96.60
7518;DHT22;3800;48.922;9.444;2022-09-02T09:29:36;21.60;96.50
7518;DHT22;3800;48.922;9.444;2022-09-02T09:32:05;21.70;96.40
7518;DHT22;3800;48.922;9.444;2022-09-02T09:37:39;21.70;96.10
7518;DHT22;3800;48.922;9.444;2022-09-02T09:40:25;21.80;96.40
7518;DHT22;3800;48.922;9.444;2022-09-02T09:42:57;21.90;96.80
7518;DHT22;3800;48.922;9.444;2022-09-02T09:45:45;22.00;96.40
7518;DHT22;3800;48.922;9.444;2022-09-02T09:48:19;22.10;95.90
7518;DHT22;3800;48.922;9.444;2022-09-02T09:51:10;22.30;95.70
7518;DHT22;3800;48.922;9.444;2022-09-02T09:53:37;22.30;95.10
7518;DHT22;3800;48.922;9.444;2022-09-02T09:56:07;22.40;95.50
7518;DHT22;3800;48.922;9.444;2022-09-02T09:58:49;22.40;95.10
7518;DHT22;3800;48.922;9.444;2022-09-02T10:01:33;22.40;94.90
7518;DHT22;3800;48.922;9.444;2022-09-02T10:04:28;22.50;94.50
7518;DHT22;3800;48.922;9.444;2022-09-02T10:06:42;22.50;93.40
7518;DHT22;3800;48.922;9.444;2022-09-02T10:09:30;22.40;93.60
7518;DHT22;3800;48.922;9.444;2022-09-02T10:12:03;22.50;94.10
7518;DHT22;3800;48.922;9.444;2022-09-02T10:14:37;22.60;93.90
7518;DHT22;3800;48.922;9.444;2022-09-02T10:17:46;22.60;92.60
7518;DHT22;3800;48.922;9.444;2022-09-02T10:20:02;22.50;92.70
7518;DHT22;3800;48.922;9.444;2022-09-02T10:22:50;22.60;92.80
7518;DHT22;3800;48.922;9.444;2022-09-02T10:26:02;22.50;92.00
7518;DHT22;3800;48.922;9.444;2022-09-02T10:28:37;22.80;92.40
7518;DHT22;3800;48.922;9.444;2022-09-02T10:31:14;22.80;92.30
7518;DHT22;3800;48.922;9.444;2022-09-02T10:34:21;22.80;92.90
7518;DHT22;3800;48.922;9.444;2022-09-02T10:36:40;22.80;91.80
7518;DHT22;3800;48.922;9.444;2022-09-02T10:45:37;22.60;92.10
7518;DHT22;3800;48.922;9.444;2022-09-02T10:48:03;22.60;92.00
7518;DHT22;3800;48.922;9.444;2022-09-02T10:50:54;22.50;92.00
7518;DHT22;3800;48.922;9.444;2022-09-02T10:53:32;22.40;91.60
7518;DHT22;3800;48.922;9.444;2022-09-02T10:56:08;22.40;91.90
7518;DHT22;3800;48.922;9.444;2022-09-02T10:58:55;22.40;91.90
7518;DHT22;3800;48.922;9.444;2022-09-02T11:01:29;22.50;91.40
7518;DHT22;3800;48.922;9.444;2022-09-02T11:04:17;22.70;92.60
7518;DHT22;3800;48.922;9.444;2022-09-02T11:06:47;22.70;91.80
7518;DHT22;3800;48.922;9.444;2022-09-02T11:09:27;22.90;92.20
7518;DHT22;3800;48.922;9.444;2022-09-02T11:12:01;23.00;92.40
7518;DHT22;3800;48.922;9.444;2022-09-02T11:14:36;23.10;92.40
7518;DHT22;3800;48.922;9.444;2022-09-02T11:17:08;23.10;91.70
7518;DHT22;3800;48.922;9.444;2022-09-02T11:19:40;23.00;90.90
7518;DHT22;3800;48.922;9.444;2022-09-02T11:22:18;22.90;90.80
7518;DHT22;3800;48.922;9.444;2022-09-02T11:24:57;22.70;90.90
7518;DHT22;3800;48.922;9.444;2022-09-02T11:27:53;22.90;92.10
7518;DHT22;3800;48.922;9.444;2022-09-02T11:30:21;23.00;92.40
7518;DHT22;3800;48.922;9.444;2022-09-02T11:32:52;23.00;91.40
7518;DHT22;3800;48.922;9.444;2022-09-02T11:35:21;23.00;91.10
7518;DHT22;3800;48.922;9.444;2022-09-02T11:37:51;23.00;91.10
7518;DHT22;3800;48.922;9.444;2022-09-02T11:40:43;22.80;91.20
7518;DHT22;3800;48.922;9.444;2022-09-02T11:49:06;22.90;90.60
7518;DHT22;3800;48.922;9.444;2022-09-02T11:51:47;22.90;91.40
7518;DHT22;3800;48.922;9.444;2022-09-02T11:54:16;23.00;90.10
7518;DHT22;3800;48.922;9.444;2022-09-02T11:56:44;22.90;90.40
7518;DHT22;3800;48.922;9.444;2022-09-02T11:59:20;22.90;90.50
7518;DHT22;3800;48.922;9.444;2022-09-02T12:01:51;22.90;90.90
7518;DHT22;3800;48.922;9.444;2022-09-02T12:04:21;22.90;90.60
7518;DHT22;3800;48.922;9.444;2022-09-02T12:07:21;22.90;90.20
7518;DHT22;3800;48.922;9.444;2022-09-02T12:09:50;22.90;90.20
7518;DHT22;3800;48.922;9.444;2022-09-02T12:15:18;22.90;90.30
7518;DHT22;3800;48.922;9.444;2022-09-02T12:18:12;22.90;90.10
7518;DHT22;3800;48.922;9.444;2022-09-02T12:21:13;23.10;90.80
7518;DHT22;3800;48.922;9.444;2022-09-02T12:29:37;23.20;88.80
7518;DHT22;3800;48.922;9.444;2022-09-02T12:32:05;23.20;89.90
7518;DHT22;3800;48.922;9.444;2022-09-02T12:34:51;23.40;90.60
7518;DHT22;3800;48.922;9.444;2022-09-02T12:40:19;23.40;90.60
7518;DHT22;3800;48.922;9.444;2022-09-02T12:42:46;23.30;91.00
7518;DHT22;3800;48.922;9.444;2022-09-02T12:45:22;23.50;90.90
7518;DHT22;3800;48.922;9.444;2022-09-02T12:47:56;23.60;89.60
7518;DHT22;3800;48.922;9.444;2022-09-02T12:50:26;23.80;90.80
7518;DHT22;3800;48.922;9.444;2022-09-02T12:55:56;23.80;90.00
7518;DHT22;3800;48.922;9.444;2022-09-02T12:58:23;23.70;89.30
7518;DHT22;3800;48.922;9.444;2022-09-02T13:01:14;24.10;90.40
7518;DHT22;3800;48.922;9.444;2022-09-02T13:03:50;24.00;90.40
7518;DHT22;3800;48.922;9.444;2022-09-02T13:06:40;24.10;88.70
7518;DHT22;3800;48.922;9.444;2022-09-02T13:09:14;24.00;88.50
7518;DHT22;3800;48.922;9.444;2022-09-02T13:12:18;23.90;88.60
7518;DHT22;3800;48.922;9.444;2022-09-02T13:18:24;23.70;88.20
7518;DHT22;3800;48.922;9.444;2022-09-02T13:21:05;23.70;86.80
7518;DHT22;3800;48.922;9.444;2022-09-02T13:24:24;23.80;87.10
7518;DHT22;3800;48.922;9.444;2022-09-02T13:30:12;23.70;87.30
7518;DHT22;3800;48.922;9.444;2022-09-02T13:32:40;23.70;86.80
7518;DHT22;3800;48.922;9.444;2022-09-02T13:35:15;23.80;88.70
7518;DHT22;3800;48.922;9.444;2022-09-02T13:37:43;23.90;88.50
7518;DHT22;3800;48.922;9.444;2022-09-02T13:40:32;24.00;89.80
7518;DHT22;3800;48.922;9.444;2022-09-02T13:43:01;24.10;90.20
7518;DHT22;3800;48.922;9.444;2022-09-02T13:45:32;24.10;88.20
7518;DHT22;3800;48.922;9.444;2022-09-02T13:48:01;24.10;88.50
7518;DHT22;3800;48.922;9.444;2022-09-02T13:50:29;24.00;87.10
7518;DHT22;3800;48.922;9.444;2022-09-02T13:52:59;24.10;88.90
7518;DHT22;3800;48.922;9.444;2022-09-02T13:55:27;24.10;88.90
7518;DHT22;3800;48.922;9.444;2022-09-02T13:58:02;24.10;87.30
7518;DHT22;3800;48.922;9.444;2022-09-02T14:00:31;24.20;89.10
7518;DHT22;3800;48.922;9.444;2022-09-02T14:03:00;24.40;89.60
7518;DHT22;3800;48.922;9.444;2022-09-02T14:05:29;24.40;88.80
7518;DHT22;3800;48.922;9.444;2022-09-02T14:07:59;24.40;88.80
7518;DHT22;3800;48.922;9.444;2022-09-02T14:10:27;24.50;89.60
7518;DHT22;3800;48.922;9.444;2022-09-02T14:12:55;24.50;89.70
7518;DHT22;3800;48.922;9.444;2022-09-02T14:15:28;24.60;90.20
7518;DHT22;3800;48.922;9.444;2022-09-02T14:18:09;24.60;90.20
7518;DHT22;3800;48.922;9.444;2022-09-02T14:20:55;24.50;90.20
7518;DHT22;3800;48.922;9.444;2022-09-02T14:23:24;24.50;90.10
7518;DHT22;3800;48.922;9.444;2022-09-02T14:25:55;24.50;88.00
7518;DHT22;3800;48.922;9.444;2022-09-02T14:28:23;24.50;87.90
7518;DHT22;3800;48.922;9.444;2022-09-02T14:30:55;24.50;89.40
7518;DHT22;3800;48.922;9.444;2022-09-02T14:33:44;24.50;89.80
7518;DHT22;3800;48.922;9.444;2022-09-02T14:36:31;24.50;90.90
7518;DHT22;3800;48.922;9.444;2022-09-02T14:39:17;24.50;90.20
7518;DHT22;3800;48.922;9.444;2022-09-02T14:41:48;24.50;90.50
7518;DHT22;3800;48.922;9.444;2022-09-02T14:44:20;24.40;90.70
7518;DHT22;3800;48.922;9.444;2022-09-02T14:46:46;24.40;90.30
7518;DHT22;3800;48.922;9.444;2022-09-02T14:49:18;24.40;90.50
7518;DHT22;3800;48.922;9.444;2022-09-02T14:51:48;24.40;90.50
7518;DHT22;3800;48.922;9.444;2022-09-02T14:57:21;24.30;90.20
7518;DHT22;3800;48.922;9.444;2022-09-02T14:59:48;24.20;90.30
7518;DHT22;3800;48.922;9.444;2022-09-02T15:02:27;24.10;91.20
7518;DHT22;3800;48.922;9.444;2022-09-02T15:04:58;24.10;91.20
7518;DHT22;3800;48.922;9.444;2022-09-02T15:07:26;24.10;90.70
7518;DHT22;3800;48.922;9.444;2022-09-02T15:09:54;24.00;90.60
7518;DHT22;3800;48.922;9.444;2022-09-02T15:12:24;24.00;90.50
7518;DHT22;3800;48.922;9.444;2022-09-02T15:14:53;24.00;91.20
7518;DHT22;3800;48.922;9.444;2022-09-02T15:17:21;23.90;91.30
7518;DHT22;3800;48.922;9.444;2022-09-02T15:19:49;23.90;90.70
7518;DHT22;3800;48.922;9.444;2022-09-02T15:22:19;23.80;90.60
7518;DHT22;3800;48.922;9.444;2022-09-02T15:24:47;23.80;90.50
7518;DHT22;3800;48.922;9.444;2022-09-02T15:27:15;23.80;90.70
7518;DHT22;3800;48.922;9.444;2022-09-02T15:29:43;23.70;90.60
7518;DHT22;3800;48.922;9.444;2022-09-02T15:32:12;23.70;91.30
7518;DHT22;3800;48.922;9.444;2022-09-02T15:34:40;23.80;90.60
7518;DHT22;3800;48.922;9.444;2022-09-02T15:37:08;23.70;90.50
7518;DHT22;3800;48.922;9.444;2022-09-02T15:39:36;23.80;91.50
7518;DHT22;3800;48.922;9.444;2022-09-02T15:42:05;23.80;90.80
7518;DHT22;3800;48.922;9.444;2022-09-02T15:44:34;23.70;90.60
7518;DHT22;3800;48.922;9.444;2022-09-02T15:47:03;23.70;91.50
7518;DHT22;3800;48.922;9.444;2022-09-02T15:49:32;23.70;91.40
7518;DHT22;3800;48.922;9.444;2022-09-02T15:52:00;23.60;91.30
7518;DHT22;3800;48.922;9.444;2022-09-02T15:54:28;23.70;91.90
7518;DHT22;3800;48.922;9.444;2022-09-02T15:56:57;23.70;90.80
7518;DHT22;3800;48.922;9.444;2022-09-02T15:59:26;23.70;91.40
7518;DHT22;3800;48.922;9.444;2022-09-02T16:01:55;23.60;91.30
7518;DHT22;3800;48.922;9.444;2022-09-02T16:04:24;23.50;90.60
7518;DHT22;3800;48.922;9.444;2022-09-02T16:06:53;23.50;90.70
7518;DHT22;3800;48.922;9.444;2022-09-02T16:09:21;23.50;91.00
7518;DHT22;3800;48.922;9.444;2022-09-02T16:11:51;23.50;91.10
7518;DHT22;3800;48.922;9.444;2022-09-02T16:14:19;23.40;91.00
7518;DHT22;3800;48.922;9.444;2022-09-02T16:16:48;23.40;90.90
7518;DHT22;3800;48.922;9.444;2022-09-02T16:19:18;23.40;90.50
7518;DHT22;3800;48.922;9.444;2022-09-02T16:21:46;23.40;90.40
7518;DHT22;3800;48.922;9.444;2022-09-02T16:24:14;23.30;90.30
7518;DHT22;3800;48.922;9.444;2022-09-02T16:26:42;23.20;90.80
7518;DHT22;3800;48.922;9.444;2022-09-02T16:29:11;23.10;91.00
7518;DHT22;3800;48.922;9.444;2022-09-02T16:31:43;23.00;90.70
7518;DHT22;3800;48.922;9.444;2022-09-02T16:34:11;22.90;90.60
7518;DHT22;3800;48.922;9.444;2022-09-02T16:36:40;22.90;90.90
7518;DHT22;3800;48.922;9.444;2022-09-02T16:39:07;22.80;90.80
7518;DHT22;3800;48.922;9.444;2022-09-02T16:41:37;22.80;90.70
7518;DHT22;3800;48.922;9.444;2022-09-02T16:44:05;22.80;90.60
7518;DHT22;3800;48.922;9.444;2022-09-02T16:46:32;22.70;91.00
7518;DHT22;3800;48.922;9.444;2022-09-02T16:49:00;22.70;91.20
7518;DHT22;3800;48.922;9.444;2022-09-02T16:51:29;22.50;91.70
7518;DHT22;3800;48.922;9.444;2022-09-02T16:53:58;22.50;91.70
7518;DHT22;3800;48.922;9.444;2022-09-02T16:56:26;22.40;91.50
7518;DHT22;3800;48.922;9.444;2022-09-02T16:58:54;22.40;91.10
7518;DHT22;3800;48.922;9.444;2022-09-02T17:01:22;22.40;91.40
7518;DHT22;3800;48.922;9.444;2022-09-02T17:03:50;22.30;91.80
7518;DHT22;3800;48.922;9.444;2022-09-02T17:06:19;22.20;91.70
7518;DHT22;3800;48.922;9.444;2022-09-02T17:08:47;22.20;91.90
7518;DHT22;3800;48.922;9.444;2022-09-02T17:11:18;22.10;92.40
7518;DHT22;3800;48.922;9.444;2022-09-02T17:13:49;22.00;92.70
7518;DHT22;3800;48.922;9.444;2022-09-02T17:16:19;22.00;93.10